Time;durP1;ratioP1;P1;durP2;ratioP2;P2;SDS_P1;SDS_P2;PMS_P1;PMS_P2;Temp;Humidity;BMP_temperature;BMP_pressure;BME280_temperature;BME280_humidity;BME280_pressure;Samples;Min_cycle;Max_cycle;Signal;HPM_P1;HPM_P2
2021/10/16 00:00:29;;;;;;;15.25;3.72;;;7.90;99.90;;;;;;4949261;28;20059;-57
2021/10/16 00:02:57;;;;;;;13.25;3.30;;;7.90;99.90;;;;;;4948583;29;20059;-58
2021/10/16 00:05:26;;;;;;;10.18;4.00;;;7.90;99.90;;;;;;4932747;29;20082;-56
2021/10/16 00:07:53;;;;;;;13.30;3.70;;;7.90;99.90;;;;;;4949073;28;20186;-58
2021/10/16 00:10:23;;;;;;;14.50;4.30;;;7.90;99.90;;;;;;4948211;28;20063;-58
2021/10/16 00:12:50;;;;;;;11.63;4.03;;;7.80;99.90;;;;;;4930243;29;20066;-57
2021/10/16 00:15:17;;;;;;;17.02;4.88;;;7.90;99.90;;;;;;4949082;28;20055;-58
2021/10/16 00:17:48;;;;;;;13.98;3.55;;;7.90;99.90;;;;;;4949630;29;20065;-58
2021/10/16 00:20:16;;;;;;;14.82;4.20;;;7.80;99.90;;;;;;4949817;28;20051;-58
2021/10/16 00:22:47;;;;;;;15.37;4.60;;;7.80;99.90;;;;;;4947516;28;20059;-56
2021/10/16 00:25:16;;;;;;;10.20;4.13;;;7.80;99.90;;;;;;4949351;28;20504;-58
2021/10/16 00:27:47;;;;;;;11.10;3.47;;;7.70;99.90;;;;;;4948826;29;20143;-58
2021/10/16 00:30:16;;;;;;;9.75;3.70;;;7.60;99.90;;;;;;4946747;28;20062;-58
2021/10/16 00:32:43;;;;;;;7.78;3.67;;;7.50;99.90;;;;;;4945147;29;20078;-57
2021/10/16 00:35:11;;;;;;;14.73;4.50;;;7.50;99.90;;;;;;4949419;29;20437;-58
2021/10/16 00:37:38;;;;;;;14.00;4.38;;;7.40;99.90;;;;;;4950792;28;20579;-58
2021/10/16 00:40:08;;;;;;;12.45;4.00;;;7.30;99.90;;;;;;4949042;28;20122;-58
2021/10/16 00:42:48;;;;;;;13.13;4.03;;;7.20;99.90;;;;;;4948965;29;20512;-58
2021/10/16 00:45:18;;;;;;;13.18;4.00;;;7.10;99.90;;;;;;4950704;28;20086;-57
2021/10/16 00:47:48;;;;;;;9.98;4.03;;;7.10;99.90;;;;;;4949980;28;20478;-58
2021/10/16 00:50:22;;;;;;;10.43;3.95;;;6.90;99.90;;;;;;4948658;28;20055;-58
2021/10/16 00:52:51;;;;;;;11.07;4.35;;;6.90;99.90;;;;;;4949558;29;20161;-57
2021/10/16 00:55:22;;;;;;;11.95;4.72;;;6.90;99.90;;;;;;4948585;28;20051;-58
2021/10/16 00:57:58;;;;;;;12.55;4.15;;;6.80;99.90;;;;;;4948813;28;20063;-58
2021/10/16 01:00:27;;;;;;;14.23;4.55;;;6.70;99.90;;;;;;4951749;28;20055;-58
2021/10/16 01:02:57;;;;;;;13.10;4.63;;;6.60;99.90;;;;;;4951639;28;20054;-55
2021/10/16 01:05:26;;;;;;;11.93;4.18;;;6.60;99.90;;;;;;4951281;28;20612;-57
2021/10/16 01:07:53;;;;;;;15.35;4.78;;;6.50;99.90;;;;;;4951733;28;20610;-58
2021/10/16 01:10:22;;;;;;;11.27;4.38;;;6.40;99.90;;;;;;4950885;28;20504;-57
2021/10/16 01:12:50;;;;;;;12.13;4.15;;;6.40;99.90;;;;;;4950233;28;20055;-58
2021/10/16 01:15:19;;;;;;;16.10;5.28;;;6.40;99.90;;;;;;4952493;28;20141;-57
2021/10/16 01:17:50;;;;;;;14.32;4.38;;;6.30;99.90;;;;;;4951389;28;20091;-58
2021/10/16 01:20:19;;;;;;;16.48;5.30;;;6.30;99.90;;;;;;4935928;28;20497;-58
2021/10/16 01:22:49;;;;;;;17.65;5.05;;;6.30;99.90;;;;;;4953012;28;20094;-58
2021/10/16 01:25:19;;;;;;;13.40;4.65;;;6.20;99.90;;;;;;4953195;28;20101;-57
2021/10/16 01:27:49;;;;;;;10.32;5.07;;;6.20;99.90;;;;;;4951404;28;20559;-59
2021/10/16 01:30:23;;;;;;;15.80;4.43;;;6.10;99.90;;;;;;4949776;28;20436;-56
2021/10/16 01:32:50;;;;;;;14.13;4.15;;;6.10;99.90;;;;;;4951036;28;20097;-57
2021/10/16 01:35:18;;;;;;;14.27;5.38;;;6.00;99.90;;;;;;4952502;28;20484;-57
2021/10/16 01:37:49;;;;;;;14.40;5.22;;;6.00;99.90;;;;;;4952034;28;20095;-58
2021/10/16 01:40:20;;;;;;;15.68;4.80;;;5.90;99.90;;;;;;4950361;29;20066;-58
2021/10/16 01:42:50;;;;;;;17.67;5.50;;;5.90;99.90;;;;;;4951904;28;20051;-54
2021/10/16 01:45:20;;;;;;;15.52;5.20;;;5.90;99.90;;;;;;4948062;28;20507;-56
2021/10/16 01:47:53;;;;;;;17.00;5.07;;;5.90;99.90;;;;;;4935627;29;20065;-53
2021/10/16 01:50:35;;;;;;;13.18;5.50;;;5.90;99.90;;;;;;4931694;29;20084;-55
2021/10/16 01:53:20;;;;;;;23.50;6.03;;;5.80;99.90;;;;;;4950590;29;20055;-58
2021/10/16 01:55:53;;;;;;;10.55;4.95;;;5.80;99.90;;;;;;4948447;29;20051;-57
2021/10/16 01:58:25;;;;;;;12.73;4.88;;;5.80;99.90;;;;;;4950254;28;20154;-58
2021/10/16 02:01:13;;;;;;;13.02;5.50;;;5.80;99.90;;;;;;4951716;29;20399;-58
2021/10/16 02:03:44;;;;;;;18.25;5.45;;;5.80;99.90;;;;;;4932748;29;20715;-57
2021/10/16 02:06:19;;;;;;;20.70;5.65;;;5.90;99.90;;;;;;4934249;29;20051;-58
2021/10/16 02:08:50;;;;;;;10.93;4.95;;;5.90;99.90;;;;;;4950613;28;20420;-57
2021/10/16 02:11:19;;;;;;;15.25;5.78;;;5.90;99.90;;;;;;4951419;28;20126;-58
2021/10/16 02:13:57;;;;;;;15.75;6.05;;;6.00;99.90;;;;;;4935669;28;20068;-58
2021/10/16 02:16:27;;;;;;;17.15;6.07;;;6.00;99.90;;;;;;4948995;28;20047;-58
2021/10/16 02:19:13;;;;;;;15.70;5.40;;;6.00;99.90;;;;;;4949414;28;20066;-57
2021/10/16 02:21:40;;;;;;;13.35;6.50;;;6.10;99.90;;;;;;4949354;29;20448;-58
2021/10/16 02:24:09;;;;;;;11.95;4.50;;;6.10;99.90;;;;;;4949269;28;20216;-55
2021/10/16 02:26:39;;;;;;;;;;;6.10;99.90;;;;;;4933316;29;20080;-58
2021/10/16 02:29:15;;;;;;;12.38;4.50;;;6.20;99.90;;;;;;4918808;29;20398;-58
2021/10/16 02:31:50;;;;;;;13.43;4.95;;;6.20;99.90;;;;;;4948989;28;20051;-58
2021/10/16 02:34:18;;;;;;;13.70;5.18;;;6.30;99.90;;;;;;4949445;28;20059;-57
2021/10/16 02:36:50;;;;;;;15.13;5.65;;;6.30;99.90;;;;;;4948733;29;20492;-58
2021/10/16 02:39:16;;;;;;;18.85;5.20;;;6.30;99.90;;;;;;4934013;29;20051;-58
2021/10/16 02:41:43;;;;;;;12.35;5.50;;;6.30;99.90;;;;;;4948255;28;20070;-58
2021/10/16 02:44:15;;;;;;;13.18;5.28;;;6.40;99.90;;;;;;4947775;29;20122;-57
2021/10/16 02:46:48;;;;;;;13.05;5.25;;;6.40;99.90;;;;;;4946200;29;20145;-56
2021/10/16 02:49:18;;;;;;;13.45;4.85;;;6.50;99.90;;;;;;4933723;28;20126;-57
2021/10/16 02:51:47;;;;;;;13.38;4.60;;;6.50;99.90;;;;;;4948258;29;20062;-57
2021/10/16 02:54:16;;;;;;;9.90;4.38;;;6.60;99.90;;;;;;4933000;29;20047;-57
2021/10/16 02:56:46;;;;;;;9.88;4.25;;;6.60;99.90;;;;;;4948860;28;20106;-57
2021/10/16 02:59:16;;;;;;;11.77;4.43;;;6.50;99.90;;;;;;4949032;28;20595;-57
2021/10/16 03:01:54;;;;;;;8.52;4.68;;;6.60;99.90;;;;;;4948594;28;20086;-58
2021/10/16 03:04:28;;;;;;;10.32;3.83;;;6.60;99.90;;;;;;4947533;28;20083;-58
2021/10/16 03:06:57;;;;;;;11.75;4.70;;;6.60;99.90;;;;;;4949619;28;20063;-57
2021/10/16 03:09:26;;;;;;;11.27;4.53;;;6.60;99.90;;;;;;4932960;29;20065;-58
2021/10/16 03:11:58;;;;;;;10.80;4.80;;;6.60;99.90;;;;;;4930695;29;20051;-58
2021/10/16 03:14:26;;;;;;;10.00;4.70;;;6.60;99.90;;;;;;4932691;29;20130;-58
2021/10/16 03:17:01;;;;;;;10.43;4.80;;;6.60;99.90;;;;;;4939002;28;20061;-58
2021/10/16 03:19:27;;;;;;;12.02;5.10;;;6.60;99.90;;;;;;4947903;28;20105;-58
2021/10/16 03:22:01;;;;;;;10.30;4.82;;;6.70;99.90;;;;;;4949322;28;20200;-57
2021/10/16 03:24:36;;;;;;;11.90;5.15;;;6.70;99.90;;;;;;4933988;29;20047;-58
2021/10/16 03:27:12;;;;;;;15.05;5.65;;;6.70;99.90;;;;;;4915620;28;20517;-57
2021/10/16 03:29:41;;;;;;;13.73;4.82;;;6.70;99.90;;;;;;4948092;28;20575;-57
2021/10/16 03:32:08;;;;;;;13.57;4.82;;;6.70;99.90;;;;;;4932293;29;20114;-57
2021/10/16 03:34:43;;;;;;;15.60;6.13;;;6.80;99.90;;;;;;4950742;28;20051;-57
2021/10/16 03:37:10;;;;;;;8.77;5.32;;;6.80;99.90;;;;;;4933336;29;20078;-58
2021/10/16 03:39:41;;;;;;;11.20;5.22;;;6.80;99.90;;;;;;4948329;28;20058;-58
2021/10/16 03:42:12;;;;;;;12.98;5.30;;;6.90;99.90;;;;;;4931364;29;20055;-58
2021/10/16 03:44:56;;;;;;;12.02;5.28;;;6.90;99.90;;;;;;4945390;28;20070;-57
2021/10/16 03:47:27;;;;;;;9.95;5.03;;;6.90;99.90;;;;;;4946516;28;20062;-58
2021/10/16 03:50:00;;;;;;;12.18;6.15;;;6.90;99.90;;;;;;4944861;28;20122;-57
2021/10/16 03:52:31;;;;;;;16.38;6.38;;;6.90;99.90;;;;;;4948006;29;20051;-58
2021/10/16 03:55:04;;;;;;;15.82;6.20;;;6.90;99.90;;;;;;4929627;28;20106;-57
2021/10/16 03:57:33;;;;;;;12.33;6.47;;;6.90;99.90;;;;;;4948275;28;20094;-58
2021/10/16 04:00:03;;;;;;;15.32;5.53;;;6.90;99.90;;;;;;4948490;28;20094;-58
2021/10/16 04:02:46;;;;;;;19.13;6.88;;;7.00;99.90;;;;;;4949486;28;20091;-58
2021/10/16 04:05:15;;;;;;;11.40;5.72;;;6.90;99.90;;;;;;4950804;28;20055;-57
2021/10/16 04:07:41;;;;;;;12.88;6.10;;;7.00;99.90;;;;;;4947408;28;20099;-58
2021/10/16 04:10:13;;;;;;;11.82;5.75;;;7.00;99.90;;;;;;4949079;28;20051;-58
2021/10/16 04:12:45;;;;;;;9.55;5.40;;;7.00;99.90;;;;;;4947880;29;20094;-58
2021/10/16 04:15:13;;;;;;;13.10;6.10;;;7.00;99.90;;;;;;4946490;29;20139;-58
2021/10/16 04:17:45;;;;;;;11.30;5.90;;;7.00;99.90;;;;;;4947256;29;20067;-58
2021/10/16 04:20:14;;;;;;;12.30;6.13;;;7.00;99.90;;;;;;4948615;28;20059;-58
2021/10/16 04:22:48;;;;;;;13.18;5.90;;;7.10;99.90;;;;;;4932686;29;20144;-58
2021/10/16 04:25:14;;;;;;;12.75;5.88;;;7.10;99.90;;;;;;4932800;29;20047;-57
2021/10/16 04:27:46;;;;;;;12.52;6.45;;;7.10;99.90;;;;;;4932319;29;20420;-57
2021/10/16 04:30:34;;;;;;;12.43;5.53;;;7.10;99.90;;;;;;4932680;29;20051;-57
2021/10/16 04:33:07;;;;;;;10.60;5.47;;;7.10;99.90;;;;;;4935915;29;20043;-56
2021/10/16 04:35:34;;;;;;;17.05;6.38;;;7.10;99.90;;;;;;4953620;28;20058;-58
2021/10/16 04:38:03;;;;;;;14.57;6.25;;;7.10;99.90;;;;;;4951231;29;20109;-58
2021/10/16 04:40:32;;;;;;;11.30;5.70;;;7.20;99.90;;;;;;4952322;28;20055;-58
2021/10/16 04:43:09;;;;;;;11.85;6.38;;;7.20;99.90;;;;;;4953049;28;20576;-58
2021/10/16 04:45:37;;;;;;;14.38;6.28;;;7.30;99.90;;;;;;4949938;29;20047;-57
2021/10/16 04:48:06;;;;;;;13.35;6.03;;;7.30;99.90;;;;;;4935058;29;20500;-58
2021/10/16 04:50:35;;;;;;;15.80;6.75;;;7.30;99.90;;;;;;4934652;29;20062;-58
2021/10/16 04:53:04;;;;;;;11.45;5.93;;;7.30;99.90;;;;;;4951306;28;20077;-58
2021/10/16 04:55:34;;;;;;;12.93;5.75;;;7.30;99.90;;;;;;4934788;29;20062;-58
2021/10/16 04:58:08;;;;;;;10.68;5.43;;;7.40;99.90;;;;;;4950795;28;20066;-57
2021/10/16 05:00:44;;;;;;;11.25;5.40;;;7.40;99.90;;;;;;4934805;29;20519;-58
2021/10/16 05:03:14;;;;;;;13.10;5.60;;;7.40;99.90;;;;;;4950744;28;20059;-57
2021/10/16 05:05:43;;;;;;;12.88;5.68;;;7.40;99.90;;;;;;4936237;29;20059;-58
2021/10/16 05:08:16;;;;;;;14.20;6.35;;;7.40;99.90;;;;;;4950810;28;20051;-58
2021/10/16 05:10:47;;;;;;;11.38;5.63;;;7.40;99.90;;;;;;4951018;28;20138;-58
2021/10/16 05:13:24;;;;;;;14.10;5.80;;;7.50;99.90;;;;;;4935292;29;20063;-58
2021/10/16 05:15:56;;;;;;;10.73;5.63;;;7.50;99.90;;;;;;4952045;28;20109;-58
2021/10/16 05:18:28;;;;;;;9.25;5.47;;;7.50;99.90;;;;;;4954664;28;20155;-58
2021/10/16 05:21:01;;;;;;;9.43;5.00;;;7.60;99.90;;;;;;4950707;28;20051;-58
2021/10/16 05:23:28;;;;;;;16.27;5.85;;;7.60;99.90;;;;;;4951585;28;21581;-58
2021/10/16 05:26:04;;;;;;;16.15;5.80;;;7.60;99.90;;;;;;4938082;29;20419;-58
2021/10/16 05:28:33;;;;;;;13.73;6.10;;;7.60;99.90;;;;;;4950694;29;20047;-58
2021/10/16 05:31:08;;;;;;;11.90;5.10;;;7.70;99.90;;;;;;4950565;28;20496;-58
2021/10/16 05:33:37;;;;;;;10.52;4.85;;;7.70;99.90;;;;;;4949438;28;20063;-58
2021/10/16 05:36:07;;;;;;;11.23;5.03;;;7.70;99.90;;;;;;4934503;28;20129;-58
2021/10/16 05:38:36;;;;;;;14.02;5.20;;;7.80;99.90;;;;;;4952396;28;20571;-58
2021/10/16 05:41:05;;;;;;;13.07;4.90;;;7.80;99.90;;;;;;4935095;29;20058;-58
2021/10/16 05:43:37;;;;;;;11.20;4.38;;;7.80;99.90;;;;;;4950011;28;20054;-57
2021/10/16 05:46:06;;;;;;;14.52;5.53;;;7.80;99.90;;;;;;4950900;29;20062;-58
2021/10/16 05:48:36;;;;;;;10.70;5.80;;;7.80;99.90;;;;;;4952441;28;20126;-58
2021/10/16 05:51:02;;;;;;;10.27;5.13;;;7.80;99.90;;;;;;4957670;28;20066;-58
2021/10/16 05:53:29;;;;;;;11.60;4.45;;;7.80;99.90;;;;;;4951694;28;20047;-58
2021/10/16 05:56:00;;;;;;;13.38;4.97;;;7.80;99.90;;;;;;4951113;29;20051;-58
2021/10/16 05:58:30;;;;;;;15.50;5.57;;;7.90;99.90;;;;;;4937824;28;20058;-58
2021/10/16 06:00:56;;;;;;;13.00;4.43;;;7.90;99.90;;;;;;4950737;29;20058;-58
2021/10/16 06:03:28;;;;;;;10.13;4.82;;;7.90;99.90;;;;;;4947938;28;20740;-59
2021/10/16 06:05:58;;;;;;;15.48;5.15;;;7.90;99.90;;;;;;4949829;28;20060;-57
2021/10/16 06:08:31;;;;;;;11.18;4.18;;;7.90;99.90;;;;;;4935330;29;20052;-58
2021/10/16 06:10:57;;;;;;;;;;;7.90;99.90;;;;;;4934755;28;20095;-58
2021/10/16 06:13:24;;;;;;;8.80;3.47;;;8.00;99.90;;;;;;4948658;28;20330;-58
2021/10/16 06:15:50;;;;;;;18.00;6.63;;;8.00;99.90;;;;;;4933346;29;20138;-58
2021/10/16 06:18:17;;;;;;;12.40;4.43;;;8.10;99.90;;;;;;4952936;28;20074;-58
2021/10/16 06:20:43;;;;;;;11.23;3.95;;;8.10;99.90;;;;;;4951852;28;20138;-58
2021/10/16 06:23:09;;;;;;;11.90;4.00;;;8.10;99.90;;;;;;4933502;29;20126;-58
2021/10/16 06:25:36;;;;;;;10.23;3.63;;;8.10;99.90;;;;;;4949676;29;20095;-58
2021/10/16 06:28:03;;;;;;;10.02;3.80;;;8.10;99.90;;;;;;4935660;28;20059;-57
2021/10/16 06:30:29;;;;;;;14.85;4.38;;;8.20;99.90;;;;;;4950296;28;20051;-58
2021/10/16 06:32:57;;;;;;;8.90;4.20;;;8.20;99.90;;;;;;4950442;29;20055;-58
2021/10/16 06:35:24;;;;;;;13.15;4.13;;;8.20;99.90;;;;;;4949147;29;20571;-58
2021/10/16 06:37:51;;;;;;;11.85;4.15;;;8.30;99.90;;;;;;4951921;28;20054;-58
2021/10/16 06:40:17;;;;;;;12.18;4.28;;;8.30;99.90;;;;;;4929501;29;20062;-57
2021/10/16 06:42:51;;;;;;;16.52;4.53;;;8.30;99.90;;;;;;4948850;29;20146;-58
2021/10/16 06:45:41;;;;;;;13.07;4.15;;;8.40;99.90;;;;;;4929078;29;20055;-58
2021/10/16 06:48:30;;;;;;;12.57;3.70;;;8.40;99.90;;;;;;4947554;29;20051;-58
2021/10/16 06:51:08;;;;;;;10.05;4.15;;;8.40;99.90;;;;;;4930123;29;20058;-59
2021/10/16 06:53:35;;;;;;;12.43;3.88;;;8.50;99.90;;;;;;4949301;28;20128;-59
2021/10/16 06:56:01;;;;;;;10.85;3.90;;;8.50;99.90;;;;;;4949756;29;20054;-59
2021/10/16 06:58:30;;;;;;;10.35;3.90;;;8.50;99.90;;;;;;4949120;29;20087;-59
2021/10/16 07:00:56;;;;;;;19.02;6.40;;;8.50;99.90;;;;;;4948958;29;20511;-58
2021/10/16 07:03:39;;;;;;;12.45;4.35;;;8.60;99.90;;;;;;4948309;29;20052;-59
2021/10/16 07:06:08;;;;;;;11.45;5.07;;;8.60;99.90;;;;;;4948740;29;20459;-58
2021/10/16 07:08:34;;;;;;;12.30;3.85;;;8.70;99.90;;;;;;4948469;29;20172;-59
2021/10/16 07:11:03;;;;;;;14.45;4.63;;;8.70;99.90;;;;;;4912523;29;20051;-63
2021/10/16 07:13:30;;;;;;;11.35;4.60;;;8.70;99.90;;;;;;4950012;28;20160;-59
2021/10/16 07:15:59;;;;;;;17.52;4.30;;;8.70;99.90;;;;;;4949560;29;20051;-59
2021/10/16 07:18:26;;;;;;;16.33;4.45;;;8.70;99.90;;;;;;4948870;29;20540;-59
2021/10/16 07:20:52;;;;;;;16.35;4.32;;;8.80;99.90;;;;;;4949633;29;20069;-59
2021/10/16 07:23:26;;;;;;;16.77;4.60;;;8.90;99.90;;;;;;4949414;29;20093;-59
2021/10/16 07:25:54;;;;;;;12.98;4.78;;;8.90;99.90;;;;;;4933358;29;20099;-59
2021/10/16 07:28:21;;;;;;;9.77;4.18;;;8.90;99.90;;;;;;4947413;29;20086;-59
2021/10/16 07:30:51;;;;;;;15.60;4.53;;;9.00;99.90;;;;;;4948942;29;20106;-59
2021/10/16 07:33:17;;;;;;;13.95;5.07;;;9.00;99.90;;;;;;4948731;29;20197;-60
2021/10/16 07:35:44;;;;;;;14.00;4.78;;;9.00;99.90;;;;;;4947699;29;20057;-60
2021/10/16 07:38:11;;;;;;;10.55;4.35;;;9.10;99.90;;;;;;4948176;29;20590;-60
2021/10/16 07:40:40;;;;;;;13.10;4.57;;;9.10;99.90;;;;;;4949000;29;20051;-59
2021/10/16 07:43:06;;;;;;;14.43;4.53;;;9.20;99.90;;;;;;4949318;29;20110;-59
2021/10/16 07:45:32;;;;;;;9.60;3.78;;;9.20;99.90;;;;;;4931414;29;20067;-60
2021/10/16 07:47:58;;;;;;;11.50;4.00;;;9.20;99.90;;;;;;4947752;29;20059;-59
2021/10/16 07:50:25;;;;;;;10.68;4.13;;;9.20;99.90;;;;;;4949087;29;20047;-59
2021/10/16 07:52:51;;;;;;;12.77;3.90;;;9.30;99.90;;;;;;4949286;29;20066;-59
2021/10/16 07:55:17;;;;;;;10.35;3.55;;;9.20;99.90;;;;;;4949643;29;20035;-60
2021/10/16 07:57:43;;;;;;;14.02;3.88;;;9.20;99.90;;;;;;4948091;29;20424;-59
2021/10/16 08:00:09;;;;;;;12.80;3.53;;;9.30;99.90;;;;;;4946913;29;20055;-59
2021/10/16 08:02:39;;;;;;;14.55;5.10;;;9.30;99.90;;;;;;4948425;29;20051;-59
2021/10/16 08:05:08;;;;;;;11.27;3.20;;;9.30;99.90;;;;;;4949866;28;20548;-59
2021/10/16 08:07:34;;;;;;;11.02;3.38;;;9.40;99.90;;;;;;4951994;29;20069;-59
2021/10/16 08:10:04;;;;;;;18.45;4.55;;;9.40;99.90;;;;;;4935410;29;20055;-58
2021/10/16 08:12:30;;;;;;;12.82;4.25;;;9.50;99.90;;;;;;4950764;29;20165;-58
2021/10/16 08:14:56;;;;;;;10.10;4.88;;;9.50;99.90;;;;;;4951316;29;20062;-59
2021/10/16 08:17:22;;;;;;;12.32;3.88;;;9.50;99.90;;;;;;4952038;29;20070;-59
2021/10/16 08:19:48;;;;;;;20.70;4.90;;;9.60;99.90;;;;;;4951689;29;20134;-59
2021/10/16 08:22:15;;;;;;;12.93;3.50;;;9.60;99.90;;;;;;4952230;29;20051;-57
2021/10/16 08:24:43;;;;;;;13.75;4.38;;;9.60;99.90;;;;;;4953613;29;20531;-60
2021/10/16 08:27:09;;;;;;;11.20;4.65;;;9.70;99.90;;;;;;4952355;29;20421;-59
2021/10/16 08:29:36;;;;;;;12.27;4.15;;;9.80;99.90;;;;;;4935793;29;20495;-59
2021/10/16 08:32:02;;;;;;;11.43;3.97;;;9.80;99.90;;;;;;4952576;29;20105;-58
2021/10/16 08:34:29;;;;;;;14.80;4.18;;;9.90;99.90;;;;;;4952758;29;20051;-59
2021/10/16 08:36:55;;;;;;;15.18;4.70;;;10.00;99.90;;;;;;4951323;29;20055;-59
2021/10/16 08:39:23;;;;;;;20.10;10.23;;;10.10;99.90;;;;;;4953490;29;20058;-60
2021/10/16 08:41:50;;;;;;;22.85;13.70;;;10.10;99.90;;;;;;4937763;29;20055;-60
2021/10/16 08:44:16;;;;;;;40.42;23.98;;;10.20;99.90;;;;;;4952680;29;20086;-61
2021/10/16 08:46:43;;;;;;;15.52;8.68;;;10.30;99.90;;;;;;4935644;29;20055;-60
2021/10/16 08:49:12;;;;;;;24.73;12.43;;;10.40;99.90;;;;;;4952770;29;20105;-60
2021/10/16 08:51:40;;;;;;;25.95;17.48;;;10.60;99.90;;;;;;4949954;29;20479;-62
2021/10/16 08:54:06;;;;;;;20.95;13.32;;;10.60;99.90;;;;;;4952406;29;20509;-59
2021/10/16 08:56:32;;;;;;;11.48;4.97;;;10.70;99.90;;;;;;4953295;29;20055;-61
2021/10/16 08:59:01;;;;;;;238.77;204.25;;;10.80;99.90;;;;;;4937241;29;20113;-59
2021/10/16 09:01:27;;;;;;;40.17;25.38;;;11.00;99.90;;;;;;4950809;29;20134;-59
2021/10/16 09:03:55;;;;;;;17.20;8.25;;;11.00;99.90;;;;;;4934115;29;20078;-59
2021/10/16 09:06:27;;;;;;;14.90;7.20;;;11.00;99.90;;;;;;4952043;28;20066;-60
2021/10/16 09:08:59;;;;;;;29.48;17.73;;;11.10;99.90;;;;;;4952516;28;20094;-59
2021/10/16 09:11:32;;;;;;;68.68;53.15;;;11.20;99.90;;;;;;4951795;29;20055;-60
2021/10/16 09:14:07;;;;;;;29.25;16.63;;;11.30;99.90;;;;;;4950797;29;20058;-60
2021/10/16 09:16:37;;;;;;;19.00;8.75;;;11.30;99.90;;;;;;4951533;28;20741;-59
2021/10/16 09:19:17;;;;;;;16.55;8.68;;;11.30;99.90;;;;;;4951385;29;20578;-60
2021/10/16 09:21:54;;;;;;;10.40;3.70;;;11.40;99.90;;;;;;4951311;29;20058;-60
2021/10/16 09:24:22;;;;;;;32.20;21.40;;;11.50;99.90;;;;;;4951997;29;20051;-61
2021/10/16 09:26:51;;;;;;;14.57;5.53;;;11.60;99.90;;;;;;4952815;29;20059;-59
2021/10/16 09:29:19;;;;;;;13.13;5.50;;;11.60;99.90;;;;;;4952715;29;20175;-59
2021/10/16 09:31:54;;;;;;;24.80;15.65;;;11.70;99.90;;;;;;4952899;29;20427;-59
2021/10/16 09:34:27;;;;;;;20.35;14.13;;;11.80;99.90;;;;;;4953207;29;20588;-60
2021/10/16 09:37:03;;;;;;;27.20;16.48;;;11.80;99.90;;;;;;4952501;29;20850;-59
2021/10/16 09:39:31;;;;;;;12.48;4.50;;;11.80;99.90;;;;;;4952085;29;20058;-59
2021/10/16 09:42:04;;;;;;;18.60;10.15;;;11.80;99.90;;;;;;4935101;29;20081;-60
2021/10/16 09:44:32;;;;;;;38.25;24.15;;;11.90;99.90;;;;;;4952724;29;20058;-61
2021/10/16 09:47:11;;;;;;;48.42;32.75;;;12.00;99.90;;;;;;4932400;29;20496;-60
2021/10/16 09:49:53;;;;;;;13.63;6.88;;;12.00;99.90;;;;;;4952043;29;20047;-57
2021/10/16 09:52:20;;;;;;;17.70;11.52;;;12.00;99.90;;;;;;4951893;29;20125;-60
2021/10/16 09:54:50;;;;;;;14.02;4.57;;;12.00;99.90;;;;;;4951257;29;20074;-60
2021/10/16 09:57:21;;;;;;;15.13;6.85;;;11.90;99.90;;;;;;4950676;29;20059;-60
2021/10/16 09:59:51;;;;;;;14.35;6.63;;;12.00;99.90;;;;;;4951770;29;20063;-60
2021/10/16 10:02:17;;;;;;;12.80;6.00;;;12.00;99.90;;;;;;4951732;29;20091;-60
2021/10/16 10:04:47;;;;;;;18.70;9.35;;;12.00;99.90;;;;;;4951542;29;20393;-60
2021/10/16 10:07:16;;;;;;;15.68;6.05;;;12.00;99.90;;;;;;4934918;29;20061;-59
2021/10/16 10:09:43;;;;;;;16.15;6.45;;;12.10;99.90;;;;;;4951706;29;20055;-59
2021/10/16 10:12:10;;;;;;;12.88;5.18;;;12.00;99.90;;;;;;4951073;29;20050;-60
2021/10/16 10:14:45;;;;;;;15.90;6.22;;;12.10;99.90;;;;;;4951377;29;20054;-60
2021/10/16 10:17:39;;;;;;;12.90;4.60;;;12.10;99.90;;;;;;4949859;29;20078;-60
2021/10/16 10:20:12;;;;;;;12.90;3.95;;;12.10;99.90;;;;;;4951242;29;20213;-59
2021/10/16 10:22:40;;;;;;;13.38;5.32;;;12.10;99.90;;;;;;4951170;29;20055;-60
2021/10/16 10:25:23;;;;;;;11.35;4.43;;;12.10;99.90;;;;;;4951244;29;20130;-60
2021/10/16 10:27:50;;;;;;;16.80;5.07;;;12.10;99.90;;;;;;4951534;28;20059;-59
2021/10/16 10:30:34;;;;;;;10.88;4.97;;;12.10;99.90;;;;;;4950558;29;20073;-60
2021/10/16 10:33:16;;;;;;;11.40;4.70;;;12.10;99.90;;;;;;4949404;29;20516;-60
2021/10/16 10:36:05;;;;;;;11.57;4.45;;;12.20;99.90;;;;;;4951429;29;20062;-62
2021/10/16 10:38:32;;;;;;;107.40;86.50;;;12.30;99.90;;;;;;4941256;29;20187;-60
2021/10/16 10:41:38;;;;;;;14.13;8.18;;;12.30;99.90;;;;;;4953748;28;20054;-60
2021/10/16 10:44:12;;;;;;;13.85;5.63;;;12.30;99.90;;;;;;4948595;28;20058;-59
2021/10/16 10:46:38;;;;;;;19.92;9.32;;;12.40;99.90;;;;;;4969445;28;20058;-59
2021/10/16 10:49:14;;;;;;;12.70;4.93;;;12.40;99.90;;;;;;4969123;28;20186;-59
2021/10/16 11:02:32;;;;;;;15.20;7.60;;;12.50;99.90;;;;;;6147657;22;1266223;-61
2021/10/16 11:05:03;;;;;;;12.00;4.10;;;12.50;99.90;;;;;;6187990;23;20441;-61
2021/10/16 11:07:38;;;;;;;14.40;6.72;;;12.60;99.90;;;;;;6188733;23;20029;-61
2021/10/16 11:10:05;;;;;;;14.13;5.88;;;12.60;99.90;;;;;;6188416;23;20063;-61
2021/10/16 11:12:36;;;;;;;12.13;4.75;;;12.70;99.90;;;;;;6160547;23;20056;-60
2021/10/16 11:15:04;;;;;;;12.45;4.60;;;12.70;99.90;;;;;;6187162;23;20028;-60
2021/10/16 11:17:36;;;;;;;12.60;5.35;;;12.70;99.90;;;;;;6187370;23;20039;-61
2021/10/16 11:20:05;;;;;;;14.93;4.22;;;12.70;99.90;;;;;;6187394;23;20025;-62
2021/10/16 11:22:45;;;;;;;11.13;4.03;;;12.70;99.90;;;;;;6187034;23;20028;-61
2021/10/16 11:25:29;;;;;;;15.63;6.50;;;12.70;99.90;;;;;;6186952;23;20136;-61
2021/10/16 11:28:16;;;;;;;14.55;4.13;;;12.80;99.90;;;;;;6187405;23;20437;-61
2021/10/16 11:30:46;;;;;;;12.25;4.13;;;12.80;99.90;;;;;;6187171;23;20017;-60
2021/10/16 11:33:17;;;;;;;11.68;3.75;;;12.70;99.90;;;;;;6187051;23;20870;-61
2021/10/16 11:35:45;;;;;;;12.20;4.30;;;12.80;99.90;;;;;;6186936;23;20039;-62
2021/10/16 11:38:20;;;;;;;10.77;3.97;;;12.80;99.90;;;;;;6186948;23;20025;-60
2021/10/16 11:40:46;;;;;;;14.13;4.05;;;12.80;99.90;;;;;;6187036;23;20060;-61
2021/10/16 11:43:18;;;;;;;12.60;4.07;;;12.80;99.90;;;;;;6186779;23;20032;-60
2021/10/16 11:45:46;;;;;;;14.25;3.78;;;12.80;99.90;;;;;;6187018;23;20029;-62
2021/10/16 11:48:14;;;;;;;14.57;4.55;;;12.80;99.90;;;;;;6161158;23;20516;-59
2021/10/16 11:50:45;;;;;;;11.52;4.63;;;12.80;99.90;;;;;;6160371;23;20124;-61
2021/10/16 11:53:22;;;;;;;14.25;4.50;;;12.90;99.90;;;;;;6187222;23;20036;-60
2021/10/16 11:55:54;;;;;;;9.02;4.05;;;12.80;99.90;;;;;;6160767;23;20029;-59
2021/10/16 11:58:23;;;;;;;13.73;4.95;;;12.90;99.90;;;;;;6187676;23;20082;-60
2021/10/16 12:00:57;;;;;;;10.32;4.43;;;12.90;99.90;;;;;;6187488;23;20079;-60
2021/10/16 12:03:29;;;;;;;10.88;4.40;;;12.90;99.90;;;;;;6180429;23;20039;-60
2021/10/16 12:06:06;;;;;;;10.50;4.20;;;12.90;99.90;;;;;;6180896;23;20060;-59
2021/10/16 12:08:59;;;;;;;11.23;4.45;;;12.90;99.90;;;;;;6180829;23;20028;-59
2021/10/16 12:11:31;;;;;;;44.80;28.63;;;12.90;99.90;;;;;;6179560;23;20025;-50
2021/10/16 12:14:01;;;;;;;47.17;31.42;;;12.90;99.90;;;;;;6179572;23;20029;-59
2021/10/16 12:16:41;;;;;;;12.10;4.70;;;12.90;99.90;;;;;;6180252;23;20032;-58
2021/10/16 12:19:15;;;;;;;12.80;5.47;;;12.90;99.90;;;;;;6180752;23;20017;-58
2021/10/16 12:21:43;;;;;;;12.93;5.40;;;12.90;99.90;;;;;;6179748;23;20025;-58
2021/10/16 12:24:22;;;;;;;18.17;5.80;;;12.90;99.90;;;;;;6178863;23;20328;-59
2021/10/16 12:27:04;;;;;;;23.70;14.27;;;12.90;99.90;;;;;;6180175;23;20029;-59
2021/10/16 12:29:35;;;;;;;13.30;4.82;;;12.80;99.90;;;;;;6179915;23;20035;-58
2021/10/16 12:32:11;;;;;;;21.40;7.65;;;12.80;99.90;;;;;;6179106;23;20060;-58
2021/10/16 12:34:50;;;;;;;38.20;24.20;;;12.80;99.90;;;;;;6179717;23;20103;-58
2021/10/16 12:37:16;;;;;;;46.00;30.85;;;12.80;99.90;;;;;;6179937;23;20029;-57
2021/10/16 12:39:44;;;;;;;13.23;5.78;;;12.80;99.90;;;;;;6152947;23;20033;-58
2021/10/16 12:42:15;;;;;;;18.58;5.95;;;12.80;99.90;;;;;;6179677;23;20029;-58
2021/10/16 12:44:49;;;;;;;16.85;5.35;;;12.90;99.90;;;;;;6179515;23;20029;-58
2021/10/16 12:47:24;;;;;;;11.38;4.70;;;13.00;99.90;;;;;;6178653;23;20029;-58
2021/10/16 12:49:57;;;;;;;16.90;5.60;;;13.00;99.90;;;;;;6179014;23;20025;-59
2021/10/16 12:52:44;;;;;;;12.07;4.60;;;13.10;99.90;;;;;;6179469;23;20064;-58
2021/10/16 12:55:14;;;;;;;13.80;4.38;;;13.10;99.90;;;;;;6179419;23;20029;-59
2021/10/16 12:57:58;;;;;;;21.52;8.35;;;13.10;99.90;;;;;;6179994;23;20028;-59
2021/10/16 13:00:50;;;;;;;15.88;5.68;;;13.10;99.90;;;;;;6178773;23;20060;-59
2021/10/16 13:03:17;;;;;;;18.45;12.75;;;13.20;99.90;;;;;;6180333;23;20024;-59
2021/10/16 13:05:44;;;;;;;16.48;7.00;;;13.20;99.90;;;;;;6180139;23;20068;-60
2021/10/16 13:08:12;;;;;;;13.32;4.45;;;13.30;99.90;;;;;;6179472;23;20029;-60
2021/10/16 13:10:40;;;;;;;15.23;7.10;;;13.40;99.90;;;;;;6179440;23;20029;-60
2021/10/16 13:13:07;;;;;;;17.80;6.35;;;13.50;99.90;;;;;;6151333;23;20442;-59